createdAt,value
2022-09-11T00:01:37.959Z,22.50
2022-09-11T00:04:06.520Z,22.50
2022-09-11T00:06:34.142Z,22.50
2022-09-11T00:09:04.718Z,22.50
2022-09-11T00:11:35.465Z,22.30
2022-09-11T00:14:03.501Z,22.20
2022-09-11T00:16:35.977Z,22.30
2022-09-11T00:19:07.032Z,22.20
2022-09-11T00:21:35.203Z,22.30
2022-09-11T00:24:03.713Z,22.30
2022-09-11T00:26:31.652Z,22.30
2022-09-11T00:29:02.031Z,22.30
2022-09-11T00:31:32.623Z,22.20
2022-09-11T00:34:00.479Z,22.30
2022-09-11T00:36:31.318Z,22.30
2022-09-11T00:38:59.701Z,22.30
2022-09-11T00:41:29.176Z,22.20
2022-09-11T00:44:00.629Z,22.10
2022-09-11T00:46:39.191Z,22.20
2022-09-11T00:49:16.911Z,22.20
2022-09-11T00:51:48.025Z,22.30
2022-09-11T00:54:19.379Z,22.30
2022-09-11T00:56:48.543Z,22.30
2022-09-11T00:59:17.142Z,22.20
2022-09-11T01:01:46.379Z,22.20
2022-09-11T01:04:14.529Z,22.20
2022-09-11T01:06:42.330Z,22.10
2022-09-11T01:09:09.968Z,22.00
2022-09-11T01:11:48.107Z,22.10
2022-09-11T01:14:34.853Z,22.20
2022-09-11T01:17:15.503Z,22.10
2022-09-11T01:20:01.424Z,22.10
2022-09-11T01:23:07.678Z,22.00
2022-09-11T01:25:59.035Z,22.00
2022-09-11T01:28:34.039Z,21.90
2022-09-11T01:31:08.659Z,21.90
2022-09-11T01:33:45.130Z,21.90
2022-09-11T01:36:20.588Z,21.90
2022-09-11T01:38:52.789Z,21.90
2022-09-11T01:41:28.091Z,21.80
2022-09-11T01:44:04.230Z,21.70
2022-09-11T01:46:36.851Z,21.70
2022-09-11T01:49:11.090Z,21.70
2022-09-11T01:51:41.401Z,21.60
2022-09-11T01:54:13.488Z,21.50
2022-09-11T01:56:46.940Z,21.50
2022-09-11T01:59:27.835Z,21.60
2022-09-11T02:02:01.673Z,21.70
2022-09-11T02:04:34.340Z,21.80
2022-09-11T02:07:11.410Z,21.70
2022-09-11T02:09:45.754Z,21.70
2022-09-11T02:12:17.450Z,21.60
2022-09-11T02:14:49.940Z,21.50
2022-09-11T02:17:26.704Z,21.50
2022-09-11T02:19:57.560Z,21.60
2022-09-11T02:22:25.879Z,21.50
2022-09-11T02:24:54.200Z,21.60
2022-09-11T02:27:25.199Z,21.60
2022-09-11T02:29:56.381Z,21.50
2022-09-11T02:32:27.207Z,21.50
2022-09-11T02:34:56.772Z,21.60
2022-09-11T02:37:41.386Z,21.70
2022-09-11T02:40:42.623Z,21.70
2022-09-11T02:43:23.497Z,21.70
2022-09-11T02:46:04.915Z,21.70
2022-09-11T02:48:46.082Z,21.50
2022-09-11T02:51:23.119Z,21.50
2022-09-11T02:53:58.779Z,21.60
2022-09-11T02:56:39.611Z,21.60
2022-09-11T02:59:12.781Z,21.40
2022-09-11T03:01:52.248Z,21.50
2022-09-11T03:04:25.005Z,21.50
2022-09-11T03:06:54.994Z,21.60
2022-09-11T03:09:23.305Z,21.60
2022-09-11T03:11:55.642Z,21.70
2022-09-11T03:14:24.082Z,21.70
2022-09-11T03:16:53.705Z,21.80
2022-09-11T03:19:21.914Z,21.80
2022-09-11T03:21:51.362Z,21.70
2022-09-11T03:24:19.525Z,21.70
2022-09-11T03:26:47.754Z,21.60
2022-09-11T03:29:18.210Z,21.50
2022-09-11T03:31:47.014Z,21.50
2022-09-11T03:34:18.342Z,21.60
2022-09-11T03:36:48.414Z,21.60
2022-09-11T03:39:16.623Z,21.60
2022-09-11T03:41:44.922Z,21.60
2022-09-11T03:44:13.085Z,21.60
2022-09-11T03:46:41.406Z,21.50
2022-09-11T03:49:10.284Z,21.50
2022-09-11T03:51:40.140Z,21.50
2022-09-11T03:54:08.276Z,21.50
2022-09-11T03:56:37.514Z,21.50
2022-09-11T03:59:06.895Z,21.40
2022-09-11T04:01:36.621Z,21.40
2022-09-11T04:04:05.199Z,21.50
2022-09-11T04:06:42.204Z,21.40
2022-09-11T04:09:10.620Z,21.30
2022-09-11T04:11:41.445Z,21.30
2022-09-11T04:14:17.201Z,21.30
2022-09-11T04:16:45.441Z,21.30
2022-09-11T04:19:13.764Z,21.20
2022-09-11T04:21:45.795Z,21.20
2022-09-11T04:24:15.629Z,21.10
2022-09-11T04:26:47.439Z,21.10
2022-09-11T04:29:28.822Z,21.00
2022-09-11T04:31:57.992Z,21.00
2022-09-11T04:34:29.679Z,21.10
2022-09-11T04:36:59.399Z,21.00
2022-09-11T04:39:31.045Z,21.00
2022-09-11T04:41:59.536Z,21.10
2022-09-11T04:44:29.419Z,21.00
2022-09-11T04:46:57.572Z,21.10
2022-09-11T04:49:25.946Z,21.10
2022-09-11T04:51:54.207Z,21.00
2022-09-11T04:54:26.500Z,21.10
2022-09-11T04:56:55.004Z,21.10
2022-09-11T04:59:24.490Z,21.00
2022-09-11T05:02:13.537Z,21.00
2022-09-11T05:04:44.704Z,21.00
2022-09-11T05:07:14.645Z,20.80
2022-09-11T05:09:48.350Z,20.80
2022-09-11T05:12:18.002Z,20.80
2022-09-11T05:14:45.893Z,20.90
2022-09-11T05:17:14.124Z,20.90
2022-09-11T05:19:43.845Z,20.90
2022-09-11T05:22:12.078Z,21.00
2022-09-11T05:24:45.445Z,20.90
2022-09-11T05:27:15.082Z,20.90
2022-09-11T05:29:42.959Z,20.90
2022-09-11T05:32:13.820Z,21.00
2022-09-11T05:34:42.817Z,20.90
2022-09-11T05:37:14.169Z,20.90
2022-09-11T05:39:45.923Z,21.00
2022-09-11T05:42:17.190Z,21.10
2022-09-11T05:44:49.845Z,21.30
2022-09-11T05:47:17.869Z,21.20
2022-09-11T05:49:49.898Z,21.20
2022-09-11T05:52:18.329Z,21.10
2022-09-11T05:54:46.542Z,21.10
2022-09-11T05:57:17.528Z,20.90
2022-09-11T05:59:45.559Z,20.90
2022-09-11T06:02:14.436Z,21.10
2022-09-11T06:04:51.919Z,21.20
2022-09-11T06:07:21.818Z,21.30
2022-09-11T06:09:51.538Z,21.30
2022-09-11T06:12:20.977Z,21.30
2022-09-11T06:14:50.420Z,21.40
2022-09-11T06:17:18.500Z,21.40
2022-09-11T06:19:46.920Z,21.50
2022-09-11T06:22:16.339Z,21.50
2022-09-11T06:24:45.859Z,21.50
2022-09-11T06:27:13.899Z,21.30
2022-09-11T06:29:46.800Z,21.20
2022-09-11T06:32:14.790Z,21.30
2022-09-11T06:34:42.820Z,21.40
2022-09-11T06:37:13.669Z,21.70
2022-09-11T06:39:42.141Z,21.90
2022-09-11T06:42:13.718Z,22.00
2022-09-11T06:44:42.391Z,22.20
2022-09-11T06:47:14.408Z,22.20
2022-09-11T06:49:42.439Z,22.30
2022-09-11T06:52:43.258Z,22.30
2022-09-11T06:55:31.485Z,22.30
2022-09-11T06:58:06.896Z,22.30
2022-09-11T07:00:37.029Z,22.30
2022-09-11T07:03:06.413Z,22.30
2022-09-11T07:05:34.142Z,22.40
2022-09-11T07:08:03.754Z,22.40
2022-09-11T07:10:34.836Z,22.50
2022-09-11T07:13:04.736Z,22.50
2022-09-11T07:15:32.685Z,22.50
2022-09-11T07:18:02.466Z,22.60
2022-09-11T07:20:33.471Z,22.60
2022-09-11T07:23:02.283Z,22.70
2022-09-11T07:25:32.694Z,22.70
2022-09-11T07:28:00.630Z,22.70
2022-09-11T07:30:28.749Z,22.60
2022-09-11T07:32:57.658Z,22.70
2022-09-11T07:35:25.713Z,22.70
2022-09-11T07:37:55.992Z,22.80
2022-09-11T07:40:26.873Z,22.90
2022-09-11T07:42:55.006Z,23.00
2022-09-11T07:45:23.520Z,23.00
2022-09-11T07:47:53.391Z,23.10
2022-09-11T07:50:24.543Z,23.10
2022-09-11T07:52:53.035Z,23.10
2022-09-11T07:55:23.667Z,23.10
2022-09-11T07:57:54.345Z,23.10
2022-09-11T08:00:24.107Z,23.10
2022-09-11T08:03:01.909Z,23.20
2022-09-11T08:05:34.700Z,23.30
2022-09-11T08:08:03.325Z,23.40
2022-09-11T08:10:36.576Z,23.40
2022-09-11T08:13:09.444Z,23.50
2022-09-11T08:15:45.727Z,23.60
2022-09-11T08:18:13.766Z,23.60
2022-09-11T08:20:42.356Z,23.70
2022-09-11T08:23:10.756Z,23.80
2022-09-11T08:25:40.796Z,23.90
2022-09-11T08:28:10.536Z,23.90
2022-09-11T08:30:38.825Z,24.00
2022-09-11T08:33:09.805Z,24.00
2022-09-11T08:35:39.408Z,24.10
2022-09-11T08:38:07.496Z,24.10
2022-09-11T08:40:39.614Z,24.20
2022-09-11T08:43:21.225Z,24.40
2022-09-11T08:45:52.090Z,24.50
2022-09-11T08:48:25.385Z,24.60
2022-09-11T08:50:53.619Z,24.70
2022-09-11T08:53:22.736Z,24.60
2022-09-11T08:56:00.693Z,24.60
2022-09-11T08:58:39.089Z,24.70
2022-09-11T09:01:23.304Z,24.70
2022-09-11T09:04:10.066Z,24.70
2022-09-11T09:06:51.368Z,24.90
2022-09-11T09:09:32.969Z,25.00
2022-09-11T09:12:16.539Z,25.10
2022-09-11T09:15:11.742Z,25.20
2022-09-11T09:17:42.813Z,25.20
2022-09-11T09:20:16.956Z,25.20
2022-09-11T09:22:50.062Z,25.40
2022-09-11T09:25:22.878Z,25.40
2022-09-11T09:28:01.950Z,25.50
2022-09-11T09:30:38.792Z,25.60
2022-09-11T09:33:20.676Z,25.60
2022-09-11T09:35:48.803Z,25.70
2022-09-11T09:38:26.927Z,25.70
2022-09-11T09:41:09.292Z,25.60
2022-09-11T09:43:50.612Z,25.60
2022-09-11T09:46:27.741Z,25.70
2022-09-11T09:48:56.301Z,25.80
2022-09-11T09:51:24.087Z,26.00
2022-09-11T09:53:56.621Z,26.00
2022-09-11T09:56:26.182Z,26.10
2022-09-11T09:59:02.762Z,26.20
2022-09-11T10:01:49.737Z,26.40
2022-09-11T10:04:22.391Z,26.50
2022-09-11T10:06:52.704Z,26.50
2022-09-11T10:09:25.963Z,26.50
2022-09-11T10:12:02.695Z,26.50
2022-09-11T10:14:51.178Z,26.60
2022-09-11T10:17:30.553Z,26.70
2022-09-11T10:20:22.131Z,26.80
2022-09-11T10:22:50.581Z,26.80
2022-09-11T10:25:20.920Z,27.00
2022-09-11T10:27:59.374Z,26.90
2022-09-11T10:30:37.192Z,27.00
2022-09-11T10:33:14.992Z,27.10
2022-09-11T10:35:51.443Z,27.10
2022-09-11T10:38:20.550Z,27.10
2022-09-11T10:41:04.020Z,27.20
2022-09-11T10:43:38.478Z,27.30
2022-09-11T10:46:39.582Z,27.40
2022-09-11T10:49:18.327Z,27.50
2022-09-11T10:52:00.464Z,27.60
2022-09-11T10:54:41.896Z,27.70
2022-09-11T10:57:18.205Z,27.80
2022-09-11T11:00:02.860Z,27.90
2022-09-11T11:02:46.554Z,27.90
2022-09-11T11:05:26.564Z,28.00
2022-09-11T11:08:27.595Z,28.00
2022-09-11T11:11:15.141Z,28.20
2022-09-11T11:13:57.072Z,28.30
2022-09-11T11:16:35.850Z,28.40
2022-09-11T11:19:28.588Z,28.40
2022-09-11T11:22:03.735Z,28.60
2022-09-11T11:24:50.481Z,28.70
2022-09-11T11:27:32.662Z,28.60
2022-09-11T11:30:11.569Z,28.70
2022-09-11T11:33:01.446Z,28.60
2022-09-11T11:36:02.615Z,28.70
2022-09-11T11:39:00.788Z,28.80
2022-09-11T11:41:35.200Z,29.00
2022-09-11T11:44:06.407Z,29.00
2022-09-11T11:46:39.050Z,29.00
2022-09-11T11:49:13.159Z,29.00
2022-09-11T11:51:50.338Z,29.20
2022-09-11T11:54:24.518Z,29.20
2022-09-11T11:56:54.969Z,29.30
2022-09-11T11:59:31.953Z,29.30
2022-09-11T12:02:03.717Z,29.10
2022-09-11T12:04:43.068Z,29.20
2022-09-11T12:07:18.404Z,29.20
2022-09-11T12:09:49.766Z,29.20
2022-09-11T12:12:19.584Z,29.20
2022-09-11T12:14:54.708Z,29.10
2022-09-11T12:17:28.642Z,29.20
2022-09-11T12:20:38.413Z,29.20
2022-09-11T12:23:34.132Z,29.30
2022-09-11T12:26:18.595Z,29.40
2022-09-11T12:28:47.573Z,29.50
2022-09-11T12:31:16.899Z,29.60
2022-09-11T12:33:54.859Z,29.40
2022-09-11T12:36:34.064Z,29.60
2022-09-11T12:39:17.814Z,29.60
2022-09-11T12:41:47.311Z,29.60
2022-09-11T12:44:33.204Z,29.60
2022-09-11T12:47:20.516Z,29.50
2022-09-11T12:49:55.841Z,29.50
2022-09-11T12:52:48.137Z,29.70
2022-09-11T12:55:32.165Z,29.70
2022-09-11T12:58:03.097Z,29.70
2022-09-11T13:00:38.902Z,29.70
2022-09-11T13:03:17.314Z,29.70
2022-09-11T13:06:00.732Z,29.80
2022-09-11T13:08:34.794Z,29.90
2022-09-11T13:11:50.822Z,29.80
2022-09-11T13:14:49.569Z,29.70
2022-09-11T13:17:30.916Z,29.70
2022-09-11T13:20:21.164Z,29.70
2022-09-11T13:22:52.744Z,29.80
2022-09-11T13:25:26.939Z,29.90
2022-09-11T13:28:00.182Z,29.80
2022-09-11T13:30:30.013Z,29.90
2022-09-11T13:36:03.275Z,29.80
2022-09-11T13:38:35.896Z,29.90
2022-09-11T13:41:07.894Z,30.00
2022-09-11T13:43:44.673Z,30.10
2022-09-11T13:46:21.733Z,30.30
2022-09-11T13:49:27.123Z,30.30
2022-09-11T13:51:56.236Z,30.50
2022-09-11T13:54:29.432Z,30.60
2022-09-11T13:57:15.662Z,30.70
2022-09-11T14:00:36.631Z,30.80
2022-09-11T14:03:08.044Z,31.00
2022-09-11T14:05:37.054Z,31.10
2022-09-11T14:08:10.135Z,31.00
2022-09-11T14:10:47.410Z,31.30
2022-09-11T14:13:23.647Z,31.20
2022-09-11T14:15:58.991Z,31.20
2022-09-11T14:18:33.963Z,31.40
2022-09-11T14:21:04.452Z,31.40
2022-09-11T14:23:40.579Z,31.70
2022-09-11T14:26:17.470Z,31.70
2022-09-11T14:29:05.563Z,31.80
2022-09-11T14:31:37.401Z,32.00
2022-09-11T14:34:26.492Z,32.00
2022-09-11T14:36:57.861Z,32.00
2022-09-11T14:39:29.705Z,32.10
2022-09-11T14:41:58.309Z,32.10
2022-09-11T14:44:27.154Z,32.30
2022-09-11T14:46:55.536Z,32.40
2022-09-11T14:49:24.830Z,32.40
2022-09-11T14:51:58.565Z,32.70
2022-09-11T14:54:27.917Z,32.60
2022-09-11T14:56:56.181Z,32.90
2022-09-11T14:59:24.928Z,33.30
2022-09-11T15:01:52.858Z,33.40
2022-09-11T15:04:23.179Z,33.30
2022-09-11T15:07:15.265Z,33.40
2022-09-11T15:09:43.929Z,33.30
2022-09-11T15:12:13.495Z,33.20
2022-09-11T15:14:56.567Z,33.20
2022-09-11T15:20:24.825Z,33.30
2022-09-11T15:22:54.451Z,33.50
2022-09-11T15:25:23.965Z,33.30
2022-09-11T15:27:53.355Z,33.20
2022-09-11T15:30:38.277Z,33.20
2022-09-11T15:33:06.495Z,33.50
2022-09-11T15:35:34.375Z,33.20
2022-09-11T15:38:05.731Z,33.10
2022-09-11T15:40:36.429Z,32.80
2022-09-11T15:43:04.691Z,32.20
2022-09-11T15:45:32.547Z,31.20
2022-09-11T15:48:00.544Z,30.60
2022-09-11T15:50:40.572Z,30.40
2022-09-11T15:53:10.402Z,30.30
2022-09-11T15:56:04.495Z,30.10
2022-09-11T15:58:33.225Z,30.00
2022-09-11T16:01:02.413Z,29.80
2022-09-11T16:03:31.089Z,29.70
2022-09-11T16:05:58.994Z,29.50
2022-09-11T16:08:28.837Z,29.40
2022-09-11T16:10:56.713Z,29.20
2022-09-11T16:13:25.292Z,29.20
2022-09-11T16:16:02.887Z,29.10
2022-09-11T16:18:31.973Z,29.00
2022-09-11T16:20:59.894Z,28.90
2022-09-11T16:23:29.334Z,29.00
2022-09-11T16:25:57.064Z,29.40
2022-09-11T16:28:24.851Z,29.50
2022-09-11T16:30:53.755Z,30.40
2022-09-11T16:33:23.897Z,31.30
2022-09-11T16:35:59.794Z,32.10
2022-09-11T16:38:32.474Z,32.70
2022-09-11T16:41:09.406Z,32.90
2022-09-11T16:43:37.632Z,33.30
2022-09-11T16:46:06.843Z,33.50
2022-09-11T16:48:35.297Z,33.10
2022-09-11T16:51:03.215Z,32.90
2022-09-11T16:53:34.172Z,32.40
2022-09-11T16:56:05.457Z,30.70
2022-09-11T16:58:34.944Z,29.60
2022-09-11T17:01:05.291Z,28.90
2022-09-11T17:03:33.148Z,28.40
2022-09-11T17:06:00.902Z,28.10
2022-09-11T17:08:30.358Z,27.90
2022-09-11T17:11:02.525Z,27.60
2022-09-11T17:13:30.500Z,27.50
2022-09-11T17:16:14.037Z,27.50
2022-09-11T17:18:47.720Z,27.40
2022-09-11T17:21:17.151Z,27.30
2022-09-11T17:23:45.091Z,27.20
2022-09-11T17:26:35.863Z,27.00
2022-09-11T17:29:05.381Z,26.90
2022-09-11T17:31:33.566Z,26.90
2022-09-11T17:34:01.582Z,26.80
2022-09-11T17:36:30.539Z,26.80
2022-09-11T17:38:59.555Z,26.70
2022-09-11T17:41:29.271Z,26.70
2022-09-11T17:43:57.223Z,26.50
2022-09-11T17:46:25.791Z,26.40
2022-09-11T17:49:05.665Z,26.40
2022-09-11T17:51:34.019Z,26.40
2022-09-11T17:54:01.820Z,26.40
2022-09-11T17:56:31.778Z,26.30
2022-09-11T17:59:01.450Z,26.30
2022-09-11T18:01:31.846Z,26.20
2022-09-11T18:04:00.535Z,26.10
2022-09-11T18:06:30.196Z,26.00
2022-09-11T18:09:01.987Z,26.00
2022-09-11T18:11:51.474Z,26.00
2022-09-11T18:14:19.868Z,25.90
2022-09-11T18:16:48.213Z,25.90
2022-09-11T18:19:18.108Z,25.80
2022-09-11T18:21:49.972Z,25.90
2022-09-11T18:24:20.126Z,25.90
2022-09-11T18:26:51.083Z,25.90
2022-09-11T18:29:20.771Z,25.90
2022-09-11T18:31:50.351Z,25.90
2022-09-11T18:34:20.072Z,25.80
2022-09-11T18:36:48.479Z,25.90
2022-09-11T18:39:18.440Z,26.00
2022-09-11T18:41:49.167Z,26.00
2022-09-11T18:44:20.191Z,26.00
2022-09-11T18:46:49.071Z,25.90
2022-09-11T18:49:17.639Z,26.00
2022-09-11T18:51:45.967Z,25.90
2022-09-11T18:54:15.391Z,26.00
2022-09-11T18:56:44.259Z,26.10
2022-09-11T18:59:16.098Z,26.00
2022-09-11T19:01:44.723Z,25.90
2022-09-11T19:04:15.218Z,25.60
2022-09-11T19:06:45.669Z,25.50
2022-09-11T19:09:15.059Z,25.50
2022-09-11T19:11:44.710Z,25.50
2022-09-11T19:14:14.641Z,25.40
2022-09-11T19:16:43.759Z,25.50
2022-09-11T19:19:12.820Z,25.60
2022-09-11T19:21:42.139Z,25.70
2022-09-11T19:24:11.623Z,25.70
2022-09-11T19:26:42.759Z,25.70
2022-09-11T19:29:13.110Z,25.80
2022-09-11T19:31:43.465Z,25.90
2022-09-11T19:34:13.039Z,25.90
2022-09-11T19:36:42.621Z,25.70
2022-09-11T19:39:12.063Z,25.60
2022-09-11T19:41:40.869Z,25.80
2022-09-11T19:44:12.637Z,25.80
2022-09-11T19:46:43.484Z,25.80
2022-09-11T19:49:12.859Z,25.80
2022-09-11T19:51:43.089Z,25.70
2022-09-11T19:54:13.598Z,25.70
2022-09-11T19:56:44.829Z,25.70
2022-09-11T19:59:14.656Z,25.70
2022-09-11T20:01:44.664Z,25.60
2022-09-11T20:04:16.059Z,25.50
2022-09-11T20:09:31.429Z,25.30
2022-09-11T20:12:01.623Z,25.10
2022-09-11T20:14:31.411Z,25.10
2022-09-11T20:17:01.769Z,25.30
2022-09-11T20:19:30.721Z,25.40
2022-09-11T20:22:00.655Z,25.40
2022-09-11T20:24:29.489Z,25.30
2022-09-11T20:27:00.471Z,25.20
2022-09-11T20:29:31.568Z,25.20
2022-09-11T20:32:02.084Z,25.40
2022-09-11T20:34:32.839Z,25.40
2022-09-11T20:37:02.040Z,25.40
2022-09-11T20:39:34.670Z,25.40
2022-09-11T20:42:04.029Z,25.40
2022-09-11T20:44:36.781Z,25.40
2022-09-11T20:47:10.039Z,25.30
2022-09-11T20:49:39.260Z,25.30
2022-09-11T20:52:10.348Z,25.30
2022-09-11T20:54:39.157Z,25.30
2022-09-11T20:57:08.058Z,25.30
2022-09-11T20:59:36.698Z,25.30
2022-09-11T21:02:06.936Z,25.20
2022-09-11T21:04:35.061Z,25.20
2022-09-11T21:07:03.219Z,25.20
2022-09-11T21:09:32.301Z,25.20
2022-09-11T21:12:00.529Z,25.20
2022-09-11T21:14:29.281Z,25.10
2022-09-11T21:16:57.408Z,25.00
2022-09-11T21:19:27.579Z,25.00
2022-09-11T21:21:56.020Z,25.00
2022-09-11T21:24:24.419Z,24.80
2022-09-11T21:26:52.714Z,24.90
2022-09-11T21:29:21.006Z,24.90
2022-09-11T21:31:49.644Z,24.90
2022-09-11T21:34:18.016Z,24.80
2022-09-11T21:36:47.776Z,24.80
2022-09-11T21:39:16.046Z,24.80
2022-09-11T21:41:44.336Z,24.80
2022-09-11T21:44:12.752Z,24.70
2022-09-11T21:46:41.237Z,24.70
2022-09-11T21:49:10.515Z,24.60
2022-09-11T21:51:38.975Z,24.60
2022-09-11T21:54:08.676Z,24.60
2022-09-11T21:56:37.127Z,24.50
2022-09-11T21:59:05.529Z,24.40
2022-09-11T22:01:34.228Z,24.30
2022-09-11T22:04:03.148Z,24.50
2022-09-11T22:06:31.836Z,24.50
2022-09-11T22:09:00.786Z,24.40
2022-09-11T22:11:30.665Z,24.30
2022-09-11T22:13:59.024Z,24.30
2022-09-11T22:16:27.577Z,24.30
2022-09-11T22:18:57.266Z,24.20
2022-09-11T22:21:25.345Z,24.20
2022-09-11T22:23:53.907Z,24.20
2022-09-11T22:26:24.435Z,24.30
2022-09-11T22:28:54.675Z,24.20
2022-09-11T22:31:24.506Z,24.10
2022-09-11T22:33:54.164Z,24.00
2022-09-11T22:36:24.986Z,24.00
2022-09-11T22:38:53.649Z,24.00
2022-09-11T22:41:22.394Z,24.00
2022-09-11T22:43:50.617Z,23.90
2022-09-11T22:46:21.755Z,23.80
2022-09-11T22:48:50.215Z,23.80
2022-09-11T22:51:18.338Z,23.90
2022-09-11T22:53:47.068Z,23.90
2022-09-11T22:56:15.715Z,23.90
2022-09-11T22:58:44.000Z,23.90
2022-09-11T23:01:17.608Z,23.90
2022-09-11T23:03:50.960Z,23.90
2022-09-11T23:06:38.389Z,23.90
2022-09-11T23:09:07.726Z,23.90
2022-09-11T23:11:35.876Z,23.80
2022-09-11T23:14:04.156Z,23.70
2022-09-11T23:16:32.274Z,23.60
2022-09-11T23:19:05.467Z,23.60
2022-09-11T23:21:35.836Z,23.60
2022-09-11T23:24:06.415Z,23.60
2022-09-11T23:26:34.856Z,23.40
2022-09-11T23:29:02.955Z,23.40
2022-09-11T23:31:32.558Z,23.30
2022-09-11T23:34:05.091Z,23.40
2022-09-11T23:36:33.568Z,23.40
2022-09-11T23:39:01.969Z,23.40
2022-09-11T23:41:32.229Z,23.30
2022-09-11T23:44:00.698Z,23.30
2022-09-11T23:46:28.899Z,23.30
2022-09-11T23:48:57.026Z,23.20
2022-09-11T23:51:27.208Z,23.20
2022-09-11T23:53:55.378Z,23.10
2022-09-11T23:56:23.678Z,23.10
2022-09-11T23:58:51.830Z,23.00
